createdAt,value
2022-08-21T00:00:17.003Z,8.55
2022-08-21T00:03:08.108Z,8.52
2022-08-21T00:05:39.187Z,9.73
2022-08-21T00:08:06.216Z,7.40
2022-08-21T00:10:33.467Z,10.45
2022-08-21T00:13:01.783Z,7.47
2022-08-21T00:15:31.629Z,9.55
2022-08-21T00:17:59.885Z,7.53
2022-08-21T00:20:27.291Z,13.18
2022-08-21T00:22:54.222Z,7.93
2022-08-21T00:25:24.342Z,42.17
2022-08-21T00:27:53.629Z,15.98
2022-08-21T00:30:23.466Z,18.70
2022-08-21T00:32:52.031Z,11.35
2022-08-21T00:35:22.795Z,14.80
2022-08-21T00:37:49.712Z,33.63
2022-08-21T00:40:20.180Z,24.70
2022-08-21T00:42:50.092Z,46.65
2022-08-21T00:45:22.453Z,40.92
2022-08-21T00:47:50.826Z,27.92
2022-08-21T00:50:21.933Z,40.15
2022-08-21T00:52:52.089Z,33.30
2022-08-21T00:55:21.833Z,27.35
2022-08-21T00:57:53.045Z,21.27
2022-08-21T01:00:29.313Z,13.30
2022-08-21T01:03:01.064Z,12.65
2022-08-21T01:05:28.981Z,13.13
2022-08-21T01:07:58.037Z,10.15
2022-08-21T01:10:25.489Z,9.60
2022-08-21T01:12:56.128Z,12.63
2022-08-21T01:15:25.470Z,8.95
2022-08-21T01:17:52.306Z,9.57
2022-08-21T01:20:19.065Z,9.18
2022-08-21T01:22:46.036Z,7.65
2022-08-21T01:25:16.034Z,10.18
2022-08-21T01:27:43.478Z,9.40
2022-08-21T01:30:15.699Z,6.03
2022-08-21T01:32:42.949Z,7.57
2022-08-21T01:35:12.834Z,7.80
2022-08-21T01:37:40.309Z,7.72
2022-08-21T01:40:09.053Z,9.60
2022-08-21T01:42:36.364Z,7.88
2022-08-21T01:45:04.642Z,8.55
2022-08-21T01:47:31.510Z,7.45
2022-08-21T01:49:58.225Z,9.88
2022-08-21T01:52:25.000Z,6.15
2022-08-21T01:54:55.719Z,5.60
2022-08-21T01:57:26.366Z,7.25
2022-08-21T01:59:53.637Z,10.05
2022-08-21T02:02:20.379Z,8.65
2022-08-21T02:04:47.131Z,5.72
2022-08-21T02:07:13.945Z,5.15
2022-08-21T02:09:43.040Z,7.50
2022-08-21T02:12:12.097Z,7.25
2022-08-21T02:14:39.177Z,6.32
2022-08-21T02:17:09.270Z,11.35
2022-08-21T02:19:40.241Z,8.68
2022-08-21T02:22:11.202Z,7.85
2022-08-21T02:24:54.677Z,7.95
2022-08-21T02:27:27.233Z,8.95
2022-08-21T02:29:56.816Z,8.85
2022-08-21T02:32:23.558Z,9.55
2022-08-21T02:34:50.759Z,10.00
2022-08-21T02:37:18.073Z,9.48
2022-08-21T02:39:44.829Z,8.45
2022-08-21T02:42:11.677Z,9.70
2022-08-21T02:44:38.395Z,6.97
2022-08-21T02:47:05.372Z,5.60
2022-08-21T02:49:32.022Z,7.30
2022-08-21T02:51:58.728Z,7.15
2022-08-21T02:54:25.662Z,10.02
2022-08-21T02:56:52.429Z,6.65
2022-08-21T02:59:19.134Z,8.00
2022-08-21T03:01:45.903Z,5.97
2022-08-21T03:04:12.607Z,7.00
2022-08-21T03:06:39.390Z,4.95
2022-08-21T03:09:06.166Z,10.65
2022-08-21T03:11:34.291Z,7.80
2022-08-21T03:14:01.119Z,6.35
2022-08-21T03:16:30.924Z,8.18
2022-08-21T03:19:00.634Z,11.13
2022-08-21T03:21:27.359Z,9.57
2022-08-21T03:23:55.101Z,7.78
2022-08-21T03:26:22.293Z,6.20
2022-08-21T03:28:49.795Z,6.70
2022-08-21T03:31:16.906Z,8.93
2022-08-21T03:33:43.631Z,11.02
2022-08-21T03:36:11.332Z,6.40
2022-08-21T03:38:38.765Z,7.10
2022-08-21T03:41:06.451Z,5.40
2022-08-21T03:43:35.788Z,4.90
2022-08-21T03:46:04.454Z,7.70
2022-08-21T03:48:31.679Z,4.43
2022-08-21T03:50:58.657Z,4.90
2022-08-21T03:53:26.107Z,7.47
2022-08-21T03:55:53.673Z,10.75
2022-08-21T03:58:24.402Z,4.68
2022-08-21T04:00:53.789Z,8.60
2022-08-21T04:03:21.045Z,5.50
2022-08-21T04:05:47.804Z,7.88
2022-08-21T04:08:18.913Z,7.15
2022-08-21T04:10:54.845Z,10.52
2022-08-21T04:13:22.080Z,4.75
2022-08-21T04:15:49.314Z,8.70
2022-08-21T04:18:16.603Z,6.05
2022-08-21T04:20:50.131Z,7.32
2022-08-21T04:23:23.554Z,5.82
2022-08-21T04:25:53.151Z,7.35
2022-08-21T04:28:20.617Z,6.70
2022-08-21T04:30:47.923Z,7.22
2022-08-21T04:33:14.644Z,9.18
2022-08-21T04:35:42.971Z,5.72
2022-08-21T04:38:10.177Z,9.02
2022-08-21T04:40:37.501Z,10.82
2022-08-21T04:43:10.263Z,5.07
2022-08-21T04:45:43.006Z,10.30
2022-08-21T04:48:14.198Z,9.65
2022-08-21T04:50:50.611Z,11.57
2022-08-21T04:53:29.376Z,6.18
2022-08-21T04:55:58.655Z,6.53
2022-08-21T04:58:27.892Z,7.47
2022-08-21T05:00:58.807Z,8.82
2022-08-21T05:03:25.812Z,6.80
2022-08-21T05:05:52.830Z,4.30
2022-08-21T05:08:22.389Z,6.10
2022-08-21T05:10:49.147Z,7.25
2022-08-21T05:13:16.932Z,8.80
2022-08-21T05:15:43.617Z,6.80
2022-08-21T05:18:10.450Z,6.75
2022-08-21T05:20:38.295Z,7.68
2022-08-21T05:23:10.801Z,6.32
2022-08-21T05:25:37.627Z,4.88
2022-08-21T05:28:05.498Z,7.00
2022-08-21T05:30:33.902Z,5.22
2022-08-21T05:33:02.651Z,6.93
2022-08-21T05:35:30.072Z,8.27
2022-08-21T05:37:57.712Z,8.48
2022-08-21T05:40:24.791Z,7.90
2022-08-21T05:42:54.984Z,10.10
2022-08-21T05:45:34.655Z,6.97
2022-08-21T05:48:23.754Z,5.57
2022-08-21T05:50:52.724Z,6.32
2022-08-21T05:53:21.663Z,6.28
2022-08-21T05:55:48.808Z,8.30
2022-08-21T05:58:18.284Z,7.82
2022-08-21T06:00:48.114Z,9.30
2022-08-21T06:03:30.244Z,6.22
2022-08-21T06:05:57.384Z,6.13
2022-08-21T06:08:25.594Z,10.50
2022-08-21T06:10:53.974Z,8.32
2022-08-21T06:13:21.826Z,6.70
2022-08-21T06:15:48.854Z,9.57
2022-08-21T06:18:15.935Z,7.80
2022-08-21T06:20:42.835Z,8.13
2022-08-21T06:23:10.259Z,8.45
2022-08-21T06:25:37.088Z,8.40
2022-08-21T06:28:11.727Z,4.75
2022-08-21T06:30:40.094Z,7.03
2022-08-21T06:33:08.508Z,8.93
2022-08-21T06:35:36.110Z,6.85
2022-08-21T06:38:03.268Z,7.43
2022-08-21T06:40:31.049Z,7.82
2022-08-21T06:43:11.734Z,7.82
2022-08-21T06:45:42.576Z,7.68
2022-08-21T06:48:09.878Z,7.28
2022-08-21T06:50:37.325Z,6.63
2022-08-21T06:53:07.877Z,10.80
2022-08-21T06:55:34.805Z,7.38
2022-08-21T06:58:01.778Z,7.85
2022-08-21T07:00:28.953Z,6.72
2022-08-21T07:02:55.827Z,7.60
2022-08-21T07:05:22.741Z,7.22
2022-08-21T07:07:49.385Z,5.40
2022-08-21T07:10:22.189Z,7.47
2022-08-21T07:12:59.116Z,8.82
2022-08-21T07:15:28.716Z,5.30
2022-08-21T07:17:58.038Z,6.70
2022-08-21T07:20:24.807Z,9.75
2022-08-21T07:22:51.908Z,9.45
2022-08-21T07:25:18.839Z,8.15
2022-08-21T07:27:45.491Z,8.38
2022-08-21T07:30:12.361Z,9.35
2022-08-21T07:32:39.103Z,9.27
2022-08-21T07:35:06.077Z,6.82
2022-08-21T07:37:32.748Z,8.32
2022-08-21T07:39:59.476Z,10.07
2022-08-21T07:42:26.157Z,9.25
2022-08-21T07:44:56.369Z,9.02
2022-08-21T07:47:40.501Z,6.50
2022-08-21T07:50:12.190Z,7.32
2022-08-21T07:52:40.182Z,7.93
2022-08-21T07:55:08.746Z,8.48
2022-08-21T07:57:35.482Z,7.72
2022-08-21T08:00:04.339Z,7.03
2022-08-21T08:02:40.197Z,9.02
2022-08-21T08:05:12.002Z,8.93
2022-08-21T08:07:39.545Z,8.80
2022-08-21T08:10:07.951Z,9.32
2022-08-21T08:12:40.447Z,10.73
2022-08-21T08:15:13.092Z,9.50
2022-08-21T08:17:39.795Z,9.32
2022-08-21T08:20:09.021Z,9.73
2022-08-21T08:22:38.559Z,8.95
2022-08-21T08:25:09.405Z,6.78
2022-08-21T08:27:38.736Z,9.90
2022-08-21T08:30:07.098Z,7.38
2022-08-21T08:32:34.329Z,10.35
2022-08-21T08:35:01.134Z,6.00
2022-08-21T08:37:29.480Z,10.35
2022-08-21T08:40:04.602Z,7.63
2022-08-21T08:42:35.431Z,9.60
2022-08-21T08:45:16.868Z,9.30
2022-08-21T08:47:48.664Z,8.43
2022-08-21T08:50:28.890Z,6.72
2022-08-21T08:53:04.315Z,9.30
2022-08-21T08:55:40.275Z,10.20
2022-08-21T08:58:08.009Z,11.45
2022-08-21T09:00:34.909Z,10.98
2022-08-21T09:03:03.849Z,9.00
2022-08-21T09:05:39.263Z,12.95
2022-08-21T09:08:19.062Z,9.77
2022-08-21T09:11:04.033Z,9.77
2022-08-21T09:14:09.188Z,6.93
2022-08-21T09:16:51.168Z,9.75
2022-08-21T09:19:34.138Z,10.07
2022-08-21T09:22:29.482Z,9.35
2022-08-21T09:25:11.914Z,7.88
2022-08-21T09:27:39.241Z,9.27
2022-08-21T09:30:08.983Z,9.93
2022-08-21T09:32:38.643Z,9.23
2022-08-21T09:35:10.748Z,35.78
2022-08-21T09:38:03.873Z,49.05
2022-08-21T09:40:36.694Z,47.25
2022-08-21T09:43:05.716Z,18.00
2022-08-21T09:45:33.834Z,9.23
2022-08-21T09:48:22.348Z,14.85
2022-08-21T09:50:54.751Z,11.50
2022-08-21T09:53:33.725Z,10.93
2022-08-21T09:56:35.607Z,8.48
2022-08-21T09:59:02.333Z,10.23
2022-08-21T10:01:29.232Z,13.50
2022-08-21T10:04:09.009Z,18.60
2022-08-21T10:06:36.561Z,12.82
2022-08-21T10:09:15.098Z,13.75
2022-08-21T10:11:57.557Z,10.35
2022-08-21T10:14:42.109Z,10.65
2022-08-21T10:17:22.022Z,12.32
2022-08-21T10:20:12.950Z,9.85
2022-08-21T10:23:06.969Z,13.13
2022-08-21T10:25:33.583Z,18.85
2022-08-21T10:28:13.923Z,10.77
2022-08-21T10:31:16.778Z,8.77
2022-08-21T10:33:52.069Z,6.43
2022-08-21T10:36:37.891Z,8.48
2022-08-21T10:39:34.997Z,6.85
2022-08-21T10:42:28.439Z,9.30
2022-08-21T10:45:14.363Z,10.20
2022-08-21T10:47:57.323Z,11.02
2022-08-21T10:50:35.003Z,12.25
2022-08-21T10:53:27.315Z,8.30
2022-08-21T10:55:53.934Z,10.00
2022-08-21T10:58:29.330Z,8.65
2022-08-21T11:01:14.065Z,7.18
2022-08-21T11:03:45.453Z,6.05
2022-08-21T11:06:17.573Z,6.10
2022-08-21T11:08:47.935Z,7.93
2022-08-21T11:11:28.120Z,13.02
2022-08-21T11:14:32.629Z,6.63
2022-08-21T11:17:08.179Z,11.40
2022-08-21T11:19:48.291Z,8.82
2022-08-21T11:22:38.953Z,11.18
2022-08-21T11:25:19.687Z,8.27
2022-08-21T11:27:52.761Z,6.63
2022-08-21T11:30:19.696Z,7.43
2022-08-21T11:33:06.485Z,13.25
2022-08-21T11:35:48.237Z,15.05
2022-08-21T11:38:28.818Z,18.73
2022-08-21T11:41:09.794Z,8.30
2022-08-21T11:43:44.996Z,7.85
2022-08-21T11:46:26.788Z,7.30
2022-08-21T11:49:02.627Z,10.65
2022-08-21T11:51:40.098Z,4.18
2022-08-21T11:54:47.023Z,8.00
2022-08-21T11:57:51.799Z,8.13
2022-08-21T12:00:34.159Z,6.75
2022-08-21T12:03:14.649Z,5.93
2022-08-21T12:05:45.158Z,7.75
2022-08-21T12:08:27.651Z,6.57
2022-08-21T12:11:17.970Z,11.13
2022-08-21T12:13:58.637Z,10.90
2022-08-21T12:16:43.400Z,8.27
2022-08-21T12:19:14.430Z,11.13
2022-08-21T12:21:52.825Z,5.95
2022-08-21T12:24:34.182Z,5.22
2022-08-21T12:27:45.201Z,4.88
2022-08-21T12:30:36.527Z,4.47
2022-08-21T12:33:20.862Z,6.28
2022-08-21T12:35:50.531Z,8.25
2022-08-21T12:38:27.383Z,10.82
2022-08-21T12:41:21.098Z,14.15
2022-08-21T12:43:52.542Z,11.20
2022-08-21T12:46:23.032Z,8.43
2022-08-21T12:48:55.702Z,5.78
2022-08-21T12:51:35.298Z,7.38
2022-08-21T12:54:02.144Z,8.75
2022-08-21T12:56:32.339Z,5.47
2022-08-21T12:59:07.606Z,9.23
2022-08-21T13:01:56.041Z,8.38
2022-08-21T13:04:33.207Z,7.97
2022-08-21T13:07:01.115Z,18.73
2022-08-21T13:09:30.501Z,11.45
2022-08-21T13:11:58.506Z,6.40
2022-08-21T13:14:45.945Z,7.30
2022-08-21T13:17:25.760Z,6.40
2022-08-21T13:20:02.094Z,4.53
2022-08-21T13:22:35.005Z,5.35
2022-08-21T13:25:07.059Z,4.90
2022-08-21T13:27:35.234Z,8.27
2022-08-21T13:30:21.121Z,7.97
2022-08-21T13:32:52.021Z,6.20
2022-08-21T13:35:23.282Z,4.20
2022-08-21T13:37:52.829Z,7.30
2022-08-21T13:40:40.943Z,6.05
2022-08-21T13:43:14.296Z,5.68
2022-08-21T13:45:49.888Z,6.78
2022-08-21T13:48:17.042Z,8.57
2022-08-21T13:50:44.694Z,4.95
2022-08-21T13:53:45.666Z,9.30
2022-08-21T13:56:27.926Z,4.60
2022-08-21T13:58:56.871Z,5.20
2022-08-21T14:01:28.780Z,6.22
2022-08-21T14:04:19.004Z,6.82
2022-08-21T14:06:46.626Z,4.43
2022-08-21T14:09:43.772Z,5.35
2022-08-21T14:12:24.639Z,5.15
2022-08-21T14:14:52.627Z,5.70
2022-08-21T14:17:34.884Z,4.18
2022-08-21T14:20:04.117Z,4.70
2022-08-21T14:22:44.518Z,6.07
2022-08-21T14:25:20.214Z,11.05
2022-08-21T14:27:53.695Z,9.13
2022-08-21T14:30:30.870Z,16.17
2022-08-21T14:32:58.291Z,20.77
2022-08-21T14:35:25.329Z,16.08
2022-08-21T14:37:53.908Z,12.60
2022-08-21T14:40:23.438Z,15.40
2022-08-21T14:42:50.811Z,59.22
2022-08-21T14:45:24.918Z,40.75
2022-08-21T14:47:55.903Z,36.97
2022-08-21T14:50:22.869Z,33.53
2022-08-21T14:52:50.425Z,49.15
2022-08-21T14:55:19.039Z,13.20
2022-08-21T14:57:48.241Z,12.13
2022-08-21T15:00:18.561Z,20.58
2022-08-21T15:02:45.631Z,17.30
2022-08-21T15:05:15.425Z,18.50
2022-08-21T15:07:51.890Z,12.88
2022-08-21T15:10:18.690Z,14.65
2022-08-21T15:12:45.450Z,8.52
2022-08-21T15:15:12.521Z,10.90
2022-08-21T15:17:48.187Z,6.00
2022-08-21T15:20:15.917Z,9.32
2022-08-21T15:22:47.729Z,14.15
2022-08-21T15:25:15.004Z,16.13
2022-08-21T15:27:41.731Z,10.38
2022-08-21T15:30:08.856Z,13.57
2022-08-21T15:32:35.480Z,19.00
2022-08-21T15:35:03.175Z,8.05
2022-08-21T15:37:30.486Z,10.60
2022-08-21T15:39:57.422Z,8.18
2022-08-21T15:42:27.556Z,7.88
2022-08-21T15:44:55.617Z,10.55
2022-08-21T15:47:26.145Z,5.85
2022-08-21T15:49:52.790Z,8.80
2022-08-21T15:52:21.724Z,5.88
2022-08-21T15:54:49.110Z,12.85
2022-08-21T15:57:19.808Z,9.27
2022-08-21T15:59:50.127Z,13.63
2022-08-21T16:02:29.978Z,13.65
2022-08-21T16:04:57.993Z,11.88
2022-08-21T16:07:24.901Z,16.23
2022-08-21T16:09:51.645Z,31.85
2022-08-21T16:12:24.426Z,51.30
2022-08-21T16:14:53.231Z,60.78
2022-08-21T16:17:21.853Z,47.80
2022-08-21T16:19:48.605Z,57.17
2022-08-21T16:22:15.237Z,16.48
2022-08-21T16:24:41.934Z,6.70
2022-08-21T16:27:09.184Z,12.10
2022-08-21T16:29:37.715Z,5.72
2022-08-21T16:32:07.921Z,17.83
2022-08-21T16:34:35.697Z,6.40
2022-08-21T16:37:02.498Z,7.95
2022-08-21T16:39:29.370Z,5.63
2022-08-21T16:41:56.209Z,7.18
2022-08-21T16:44:23.142Z,8.00
2022-08-21T16:46:50.197Z,9.57
2022-08-21T16:49:17.215Z,5.55
2022-08-21T16:51:43.993Z,5.35
2022-08-21T16:54:12.016Z,7.80
2022-08-21T16:56:42.054Z,6.75
2022-08-21T16:59:12.604Z,7.82
2022-08-21T17:01:39.746Z,9.20
2022-08-21T17:04:06.612Z,11.95
2022-08-21T17:06:33.620Z,5.07
2022-08-21T17:09:04.181Z,4.97
2022-08-21T17:11:38.495Z,6.75
2022-08-21T17:14:09.308Z,8.18
2022-08-21T17:16:37.412Z,6.47
2022-08-21T17:19:04.697Z,5.80
2022-08-21T17:21:31.611Z,5.60
2022-08-21T17:23:58.547Z,6.10
2022-08-21T17:26:25.976Z,5.45
2022-08-21T17:28:54.857Z,4.43
2022-08-21T17:31:22.125Z,4.35
2022-08-21T17:33:52.854Z,6.95
2022-08-21T17:36:22.297Z,3.95
2022-08-21T17:38:49.508Z,3.08
2022-08-21T17:41:17.400Z,7.60
2022-08-21T17:43:44.329Z,4.80
2022-08-21T17:46:17.102Z,5.40
2022-08-21T17:48:47.271Z,4.75
2022-08-21T17:51:15.085Z,7.63
2022-08-21T17:53:42.001Z,4.70
2022-08-21T17:56:08.915Z,5.28
2022-08-21T17:58:37.005Z,4.72
2022-08-21T18:01:05.690Z,4.15
2022-08-21T18:03:38.499Z,6.88
2022-08-21T18:06:06.473Z,4.00
2022-08-21T18:08:34.061Z,7.68
2022-08-21T18:11:01.253Z,5.43
2022-08-21T18:13:32.987Z,4.40
2022-08-21T18:16:00.279Z,7.95
2022-08-21T18:18:32.601Z,5.22
2022-08-21T18:20:59.326Z,5.22
2022-08-21T18:23:43.442Z,5.20
2022-08-21T18:26:11.048Z,5.65
2022-08-21T18:28:38.494Z,3.80
2022-08-21T18:31:09.480Z,5.43
2022-08-21T18:33:37.821Z,5.60
2022-08-21T18:36:05.230Z,5.60
2022-08-21T18:38:31.894Z,10.50
2022-08-21T18:40:59.668Z,9.57
2022-08-21T18:43:26.944Z,8.38
2022-08-21T18:45:54.168Z,5.70
2022-08-21T18:48:21.052Z,6.88
2022-08-21T18:50:53.860Z,6.00
2022-08-21T18:53:27.434Z,8.45
2022-08-21T18:55:57.054Z,6.55
2022-08-21T18:58:31.629Z,10.10
2022-08-21T19:01:00.157Z,7.78
2022-08-21T19:03:27.068Z,9.80
2022-08-21T19:05:54.137Z,6.55
2022-08-21T19:08:22.979Z,6.28
2022-08-21T19:10:52.572Z,6.05
2022-08-21T19:13:21.286Z,7.78
2022-08-21T19:15:52.650Z,4.93
2022-08-21T19:18:28.322Z,11.55
2022-08-21T19:21:08.269Z,8.40
2022-08-21T19:23:35.546Z,5.88
2022-08-21T19:26:06.016Z,6.68
2022-08-21T19:28:38.621Z,6.70
2022-08-21T19:31:19.748Z,22.77
2022-08-21T19:33:58.970Z,45.70
2022-08-21T19:36:29.970Z,29.73
2022-08-21T19:38:56.869Z,13.27
2022-08-21T19:41:27.339Z,11.73
2022-08-21T19:43:57.844Z,8.77
2022-08-21T19:46:28.903Z,10.07
2022-08-21T19:48:57.080Z,20.00
2022-08-21T19:51:24.424Z,12.02
2022-08-21T19:53:55.822Z,27.60
2022-08-21T19:56:27.017Z,24.90
2022-08-21T19:58:55.698Z,12.07
2022-08-21T20:01:25.612Z,10.57
2022-08-21T20:03:54.159Z,11.73
2022-08-21T20:06:41.108Z,10.32
2022-08-21T20:09:10.406Z,8.57
2022-08-21T20:11:47.656Z,19.95
2022-08-21T20:14:17.576Z,32.53
2022-08-21T20:16:46.214Z,52.30
2022-08-21T20:19:13.164Z,36.47
2022-08-21T20:21:43.826Z,32.13
2022-08-21T20:24:14.654Z,19.73
2022-08-21T20:27:01.788Z,22.33
2022-08-21T20:29:34.934Z,11.30
2022-08-21T20:32:05.682Z,17.30
2022-08-21T20:34:33.180Z,15.23
2022-08-21T20:37:01.166Z,11.38
2022-08-21T20:39:28.272Z,10.60
2022-08-21T20:41:55.538Z,12.65
2022-08-21T20:44:22.561Z,11.55
2022-08-21T20:46:54.493Z,10.35
2022-08-21T20:49:27.793Z,11.00
2022-08-21T20:51:57.188Z,7.95
2022-08-21T20:54:41.994Z,8.68
2022-08-21T20:57:13.595Z,6.40
2022-08-21T21:00:01.790Z,6.20
2022-08-21T21:02:43.443Z,11.50
2022-08-21T21:05:33.155Z,9.55
2022-08-21T21:08:03.249Z,7.15
2022-08-21T21:10:41.380Z,13.77
2022-08-21T21:13:38.571Z,8.18
2022-08-21T21:16:15.827Z,12.95
2022-08-21T21:24:51.200Z,8.40
2022-08-21T21:27:29.526Z,12.88
2022-08-21T21:30:14.729Z,11.35
2022-08-21T21:32:42.781Z,12.75
2022-08-21T21:35:14.461Z,11.75
2022-08-21T21:37:58.604Z,5.72
2022-08-21T21:40:32.993Z,7.07
2022-08-21T21:43:00.475Z,7.57
2022-08-21T21:45:56.592Z,8.70
2022-08-21T21:48:37.675Z,7.45
2022-08-21T21:51:18.727Z,7.18
2022-08-21T21:53:58.521Z,8.48
2022-08-21T21:57:06.611Z,5.07
2022-08-21T21:59:40.237Z,5.72
2022-08-21T22:02:16.705Z,6.55
2022-08-21T22:05:04.444Z,7.47
2022-08-21T22:07:45.554Z,4.97
2022-08-21T22:10:19.743Z,4.85
2022-08-21T22:13:11.026Z,7.30
2022-08-21T22:15:38.209Z,4.35
2022-08-21T22:18:16.790Z,5.20
2022-08-21T22:20:52.913Z,12.68
2022-08-21T22:23:30.099Z,5.80
2022-08-21T22:26:04.485Z,5.50
2022-08-21T22:28:35.418Z,6.53
2022-08-21T22:31:22.382Z,5.50
2022-08-21T22:34:06.327Z,20.65
2022-08-21T22:36:37.164Z,42.22
2022-08-21T22:39:11.860Z,46.78
2022-08-21T22:41:43.476Z,15.45
2022-08-21T22:44:23.708Z,16.58
2022-08-21T22:47:00.893Z,17.48
2022-08-21T22:49:41.946Z,19.00
2022-08-21T22:52:24.424Z,34.15
2022-08-21T22:54:54.233Z,34.38
2022-08-21T22:57:32.164Z,27.73
2022-08-21T23:00:01.543Z,31.98
2022-08-21T23:02:38.931Z,22.75
2022-08-21T23:05:31.300Z,20.63
2022-08-21T23:08:34.270Z,14.55
2022-08-21T23:11:15.957Z,6.72
2022-08-21T23:13:46.289Z,8.80
2022-08-21T23:16:37.758Z,10.38
2022-08-21T23:19:34.450Z,10.05
2022-08-21T23:22:09.480Z,7.35
2022-08-21T23:24:49.826Z,5.40
2022-08-21T23:27:35.777Z,7.50
2022-08-21T23:30:12.297Z,6.15
2022-08-21T23:33:01.289Z,4.22
2022-08-21T23:36:04.109Z,7.60
2022-08-21T23:38:45.441Z,4.70
2022-08-21T23:41:56.802Z,6.57
2022-08-21T23:44:51.900Z,4.97
2022-08-21T23:47:27.287Z,4.15
2022-08-21T23:50:14.249Z,4.88
2022-08-21T23:53:09.031Z,5.68
2022-08-21T23:55:43.696Z,5.65
2022-08-21T23:58:30.862Z,4.80
